createdAt,value
2022-11-19T00:00:47.643Z,3.90
2022-11-19T00:03:14.935Z,3.90
2022-11-19T00:05:42.579Z,3.90
2022-11-19T00:08:09.831Z,4.00
2022-11-19T00:10:37.324Z,3.90
2022-11-19T00:13:04.715Z,4.00
2022-11-19T00:15:31.418Z,3.90
2022-11-19T00:17:58.338Z,3.90
2022-11-19T00:20:25.171Z,4.00
2022-11-19T00:22:53.309Z,4.00
2022-11-19T00:25:23.690Z,4.00
2022-11-19T00:27:50.496Z,4.00
2022-11-19T00:30:40.726Z,4.00
2022-11-19T00:33:03.945Z,4.00
2022-11-19T00:35:30.644Z,4.00
2022-11-19T00:37:57.247Z,3.90
2022-11-19T00:40:23.860Z,3.90
2022-11-19T00:43:09.087Z,3.90
2022-11-19T00:45:35.678Z,3.90
2022-11-19T00:48:02.279Z,3.90
2022-11-19T00:50:28.900Z,3.90
2022-11-19T00:52:55.508Z,3.90
2022-11-19T00:55:22.180Z,3.80
2022-11-19T00:57:48.794Z,3.80
2022-11-19T01:00:15.756Z,3.80
2022-11-19T01:02:42.368Z,3.80
2022-11-19T01:05:09.131Z,3.70
2022-11-19T01:07:35.799Z,3.70
2022-11-19T01:10:02.451Z,3.60
2022-11-19T01:12:29.079Z,3.50
2022-11-19T01:14:55.677Z,3.50
2022-11-19T01:17:22.340Z,3.50
2022-11-19T01:19:48.942Z,3.40
2022-11-19T01:22:15.545Z,3.40
2022-11-19T01:24:42.208Z,3.40
2022-11-19T01:27:08.802Z,3.40
2022-11-19T01:29:35.407Z,3.30
2022-11-19T01:32:02.038Z,3.30
2022-11-19T01:34:28.778Z,3.30
2022-11-19T01:36:55.384Z,3.30
2022-11-19T01:39:22.188Z,3.30
2022-11-19T01:41:48.924Z,3.30
2022-11-19T01:44:34.369Z,3.20
2022-11-19T01:47:00.976Z,3.20
2022-11-19T01:49:27.612Z,3.10
2022-11-19T01:52:00.751Z,3.00
2022-11-19T01:54:30.380Z,3.10
2022-11-19T01:57:00.247Z,3.20
2022-11-19T01:59:27.892Z,3.30
2022-11-19T02:01:54.506Z,3.40
2022-11-19T02:04:21.394Z,3.40
2022-11-19T02:06:48.125Z,3.40
2022-11-19T02:09:14.982Z,3.40
2022-11-19T02:12:00.183Z,3.40
2022-11-19T02:14:56.353Z,3.50
2022-11-19T02:17:41.496Z,3.50
2022-11-19T02:20:14.351Z,3.60
2022-11-19T02:22:59.880Z,3.60
2022-11-19T02:25:35.553Z,3.60
2022-11-19T02:28:21.024Z,3.50
2022-11-19T02:30:54.731Z,3.40
2022-11-19T02:33:47.784Z,3.40
2022-11-19T02:36:14.445Z,3.40
2022-11-19T02:38:47.483Z,3.40
2022-11-19T02:41:34.089Z,3.50
2022-11-19T02:44:22.553Z,3.50
2022-11-19T02:46:50.305Z,3.50
2022-11-19T02:49:19.204Z,3.40
2022-11-19T02:51:46.885Z,3.40
2022-11-19T02:54:15.836Z,3.40
2022-11-19T02:56:45.435Z,3.30
2022-11-19T02:59:31.388Z,3.30
2022-11-19T03:02:17.053Z,3.30
2022-11-19T03:04:43.731Z,3.40
2022-11-19T03:07:12.927Z,3.40
2022-11-19T03:09:41.876Z,3.40
2022-11-19T03:12:22.688Z,3.40
2022-11-19T03:15:12.493Z,3.40
2022-11-19T03:17:57.953Z,3.40
2022-11-19T03:20:31.525Z,3.40
2022-11-19T03:22:59.723Z,3.40
2022-11-19T03:25:28.748Z,3.40
2022-11-19T03:27:58.544Z,3.40
2022-11-19T03:30:25.168Z,3.40
2022-11-19T03:32:56.850Z,3.50
2022-11-19T03:35:35.608Z,3.50
2022-11-19T03:38:04.728Z,3.50
2022-11-19T03:40:31.884Z,3.50
2022-11-19T03:42:59.486Z,3.60
2022-11-19T03:45:27.748Z,3.60
2022-11-19T03:47:55.276Z,3.70
2022-11-19T03:50:29.287Z,3.60
2022-11-19T03:53:01.341Z,3.70
2022-11-19T03:55:42.767Z,3.70
2022-11-19T03:58:10.346Z,3.60
2022-11-19T04:00:37.398Z,3.70
2022-11-19T04:03:04.355Z,3.60
2022-11-19T04:05:30.955Z,3.60
2022-11-19T04:07:57.748Z,3.70
2022-11-19T04:10:24.362Z,3.60
2022-11-19T04:12:50.971Z,3.70
2022-11-19T04:15:17.563Z,3.80
2022-11-19T04:17:44.393Z,3.70
2022-11-19T04:20:11.216Z,3.70
2022-11-19T04:22:37.951Z,3.70
2022-11-19T04:25:04.952Z,3.60
2022-11-19T04:27:31.688Z,3.70
2022-11-19T04:29:58.381Z,3.70
2022-11-19T04:32:25.148Z,3.70
2022-11-19T04:34:51.788Z,3.60
2022-11-19T04:37:18.434Z,3.60
2022-11-19T04:39:45.218Z,3.60
2022-11-19T04:42:12.149Z,3.60
2022-11-19T04:44:38.792Z,3.70
2022-11-19T04:47:05.422Z,3.70
2022-11-19T04:49:32.030Z,3.70
2022-11-19T04:51:58.659Z,3.60
2022-11-19T04:54:25.279Z,3.70
2022-11-19T04:56:51.925Z,3.60
2022-11-19T04:59:18.866Z,3.60
2022-11-19T05:01:45.690Z,3.70
2022-11-19T05:04:12.392Z,3.70
2022-11-19T05:06:39.073Z,3.70
2022-11-19T05:09:05.728Z,3.70
2022-11-19T05:11:32.377Z,3.70
2022-11-19T05:13:59.074Z,3.70
2022-11-19T05:16:25.664Z,3.60
2022-11-19T05:18:52.287Z,3.70
2022-11-19T05:21:18.874Z,3.70
2022-11-19T05:23:45.516Z,3.70
2022-11-19T05:26:12.117Z,3.70
2022-11-19T05:28:39.943Z,3.80
2022-11-19T05:31:07.744Z,3.70
2022-11-19T05:33:34.918Z,3.70
2022-11-19T05:36:01.859Z,3.70
2022-11-19T05:38:28.666Z,3.60
2022-11-19T05:40:55.420Z,3.60
2022-11-19T05:43:22.287Z,3.60
2022-11-19T05:45:48.883Z,3.60
2022-11-19T05:48:15.499Z,3.60
2022-11-19T05:50:42.751Z,3.60
2022-11-19T05:53:09.619Z,3.60
2022-11-19T05:55:36.433Z,3.60
2022-11-19T05:58:03.104Z,3.60
2022-11-19T06:00:29.840Z,3.60
2022-11-19T06:02:56.608Z,3.60
2022-11-19T06:05:23.203Z,3.60
2022-11-19T06:07:50.017Z,3.60
2022-11-19T06:10:16.662Z,3.60
2022-11-19T06:12:45.714Z,3.60
2022-11-19T06:15:13.614Z,3.60
2022-11-19T06:17:40.331Z,3.60
2022-11-19T06:20:11.192Z,3.60
2022-11-19T06:22:38.412Z,3.60
2022-11-19T06:25:05.783Z,3.60
2022-11-19T06:27:32.426Z,3.60
2022-11-19T06:29:59.197Z,3.60
2022-11-19T06:32:25.897Z,3.60
2022-11-19T06:34:52.494Z,3.60
2022-11-19T06:37:19.173Z,3.60
2022-11-19T06:39:45.805Z,3.70
2022-11-19T06:42:31.349Z,3.60
2022-11-19T06:44:58.079Z,3.70
2022-11-19T06:47:24.875Z,3.60
2022-11-19T06:49:51.565Z,3.60
2022-11-19T06:52:18.154Z,3.60
2022-11-19T06:54:44.832Z,3.60
2022-11-19T06:57:11.440Z,3.60
2022-11-19T06:59:39.013Z,3.60
2022-11-19T07:02:06.722Z,3.60
2022-11-19T07:04:33.609Z,3.70
2022-11-19T07:07:00.310Z,3.70
2022-11-19T07:09:26.926Z,3.60
2022-11-19T07:11:53.521Z,3.70
2022-11-19T07:14:20.146Z,3.70
2022-11-19T07:16:46.773Z,3.70
2022-11-19T07:19:13.397Z,3.80
2022-11-19T07:21:40.002Z,3.70
2022-11-19T07:24:07.876Z,3.70
2022-11-19T07:26:34.890Z,3.70
2022-11-19T07:29:04.814Z,3.70
2022-11-19T07:31:31.820Z,3.70
2022-11-19T07:33:58.919Z,3.80
2022-11-19T07:36:25.513Z,3.90
2022-11-19T07:38:52.410Z,3.90
2022-11-19T07:41:38.114Z,4.00
2022-11-19T07:44:04.813Z,4.00
2022-11-19T07:46:31.556Z,4.10
2022-11-19T07:48:58.741Z,4.20
2022-11-19T07:51:25.839Z,4.20
2022-11-19T07:53:52.666Z,4.30
2022-11-19T07:56:19.783Z,4.30
2022-11-19T07:58:46.810Z,4.20
2022-11-19T08:01:14.823Z,4.20
2022-11-19T08:03:42.775Z,4.20
2022-11-19T08:06:09.901Z,4.20
2022-11-19T08:08:36.523Z,4.20
2022-11-19T08:11:04.412Z,4.30
2022-11-19T08:13:31.240Z,4.30
2022-11-19T08:16:01.767Z,4.30
2022-11-19T08:18:31.156Z,4.30
2022-11-19T08:21:05.730Z,4.40
2022-11-19T08:23:32.763Z,4.40
2022-11-19T08:25:59.952Z,4.50
2022-11-19T08:28:27.276Z,4.50
2022-11-19T08:30:54.167Z,4.70
2022-11-19T08:33:20.916Z,4.70
2022-11-19T08:35:47.536Z,4.80
2022-11-19T08:38:14.177Z,4.90
2022-11-19T08:40:40.780Z,5.00
2022-11-19T08:43:07.397Z,5.20
2022-11-19T08:45:38.075Z,5.30
2022-11-19T08:48:06.070Z,5.50
2022-11-19T08:50:33.322Z,5.30
2022-11-19T08:53:01.000Z,5.20
2022-11-19T08:55:29.672Z,5.20
2022-11-19T08:58:03.369Z,5.10
2022-11-19T09:00:31.383Z,5.00
2022-11-19T09:02:58.057Z,5.10
2022-11-19T09:05:24.715Z,5.10
2022-11-19T09:07:51.390Z,5.10
2022-11-19T09:10:18.411Z,5.10
2022-11-19T09:12:45.006Z,5.20
2022-11-19T09:15:11.960Z,5.10
2022-11-19T09:17:43.775Z,5.10
2022-11-19T09:20:13.248Z,5.10
2022-11-19T09:22:39.987Z,5.10
2022-11-19T09:25:08.824Z,5.10
2022-11-19T09:27:36.027Z,5.10
2022-11-19T09:30:02.717Z,5.20
2022-11-19T09:32:31.423Z,5.20
2022-11-19T09:34:58.027Z,5.30
2022-11-19T09:37:24.667Z,5.40
2022-11-19T09:39:51.271Z,5.50
2022-11-19T09:42:36.927Z,5.50
2022-11-19T09:45:10.453Z,5.40
2022-11-19T09:47:53.653Z,5.40
2022-11-19T09:50:20.489Z,5.50
2022-11-19T09:52:49.496Z,5.40
2022-11-19T09:55:42.858Z,5.30
2022-11-19T09:58:13.053Z,5.30
2022-11-19T10:00:40.016Z,5.40
2022-11-19T10:03:13.831Z,5.40
2022-11-19T10:05:54.326Z,5.40
2022-11-19T10:08:28.236Z,5.50
2022-11-19T10:11:26.895Z,5.50
2022-11-19T10:14:06.303Z,5.40
2022-11-19T10:16:45.174Z,5.40
2022-11-19T10:19:14.952Z,5.50
2022-11-19T10:21:48.601Z,5.40
2022-11-19T10:24:18.239Z,5.40
2022-11-19T10:26:50.376Z,5.40
2022-11-19T10:29:19.787Z,5.40
2022-11-19T10:31:47.530Z,5.40
2022-11-19T10:34:23.360Z,5.50
2022-11-19T10:36:55.958Z,5.60
2022-11-19T10:39:25.602Z,5.70
2022-11-19T10:41:55.804Z,5.90
2022-11-19T10:44:37.709Z,6.00
2022-11-19T10:47:05.584Z,5.90
2022-11-19T10:49:37.694Z,5.60
2022-11-19T10:52:04.789Z,5.60
2022-11-19T10:54:32.461Z,5.70
2022-11-19T10:57:00.279Z,5.60
2022-11-19T10:59:28.427Z,5.70
2022-11-19T11:02:19.379Z,5.90
2022-11-19T11:05:04.039Z,5.90
2022-11-19T11:07:50.678Z,5.70
2022-11-19T11:10:36.547Z,5.60
2022-11-19T11:13:34.196Z,5.50
2022-11-19T11:16:05.312Z,5.60
2022-11-19T11:18:32.423Z,5.60
2022-11-19T11:20:59.625Z,5.60
2022-11-19T11:23:27.499Z,5.50
2022-11-19T11:25:57.815Z,5.60
2022-11-19T11:28:25.348Z,5.60
2022-11-19T11:31:03.965Z,5.50
2022-11-19T11:33:30.747Z,5.50
2022-11-19T11:35:59.667Z,5.50
2022-11-19T11:38:27.094Z,5.50
2022-11-19T11:41:20.691Z,5.60
2022-11-19T11:44:02.500Z,5.70
2022-11-19T11:46:50.582Z,5.70
2022-11-19T11:49:37.111Z,5.70
2022-11-19T11:52:06.885Z,6.00
2022-11-19T11:54:33.568Z,6.10
2022-11-19T11:57:15.856Z,6.20
2022-11-19T11:59:42.487Z,6.30
2022-11-19T12:02:17.827Z,6.30
2022-11-19T12:04:44.512Z,6.20
2022-11-19T12:07:26.430Z,6.10
2022-11-19T12:10:12.968Z,6.00
2022-11-19T12:12:39.625Z,6.00
2022-11-19T12:15:09.111Z,6.10
2022-11-19T12:17:43.015Z,6.00
2022-11-19T12:20:28.402Z,6.00
2022-11-19T12:23:07.232Z,5.90
2022-11-19T12:25:45.896Z,5.70
2022-11-19T12:28:18.568Z,5.60
2022-11-19T12:30:54.640Z,5.60
2022-11-19T12:33:40.001Z,5.60
2022-11-19T12:36:19.696Z,5.60
2022-11-19T12:38:53.634Z,5.60
2022-11-19T12:41:20.190Z,5.50
2022-11-19T12:44:00.410Z,5.40
2022-11-19T12:46:38.940Z,5.40
2022-11-19T12:49:21.147Z,5.30
2022-11-19T12:52:03.267Z,5.30
2022-11-19T12:54:48.833Z,5.20
2022-11-19T12:57:30.823Z,5.20
2022-11-19T13:00:03.570Z,5.20
2022-11-19T13:02:35.022Z,5.20
2022-11-19T13:05:04.987Z,5.20
2022-11-19T13:07:37.521Z,5.30
2022-11-19T13:10:27.594Z,5.50
2022-11-19T13:12:55.690Z,5.60
2022-11-19T13:15:31.453Z,5.60
2022-11-19T13:17:59.906Z,6.50
2022-11-19T13:20:31.367Z,7.90
2022-11-19T13:22:59.533Z,7.90
2022-11-19T13:25:28.518Z,7.90
2022-11-19T13:27:56.432Z,7.50
2022-11-19T13:30:26.932Z,6.30
2022-11-19T13:32:53.547Z,5.90
2022-11-19T13:35:23.402Z,5.80
2022-11-19T13:38:08.807Z,6.20
2022-11-19T13:40:37.371Z,7.70
2022-11-19T13:43:31.964Z,8.70
2022-11-19T13:46:15.719Z,8.90
2022-11-19T13:48:44.596Z,9.60
2022-11-19T13:51:24.373Z,10.50
2022-11-19T13:53:51.042Z,10.40
2022-11-19T13:56:17.704Z,9.30
2022-11-19T13:58:46.679Z,8.50
2022-11-19T14:01:22.145Z,7.50
2022-11-19T14:04:21.083Z,7.30
2022-11-19T14:07:06.635Z,7.00
2022-11-19T14:09:36.147Z,7.00
2022-11-19T14:12:09.104Z,8.60
2022-11-19T14:14:54.374Z,8.70
2022-11-19T14:18:00.612Z,7.70
2022-11-19T14:20:51.707Z,6.80
2022-11-19T14:23:55.336Z,6.30
2022-11-19T14:26:40.153Z,6.00
2022-11-19T14:29:07.333Z,5.70
2022-11-19T14:31:53.881Z,5.40
2022-11-19T14:34:27.904Z,5.30
2022-11-19T14:36:55.145Z,5.30
2022-11-19T14:39:25.467Z,5.40
2022-11-19T14:42:10.451Z,5.40
2022-11-19T14:44:37.180Z,5.40
2022-11-19T14:47:22.194Z,5.40
2022-11-19T14:49:49.906Z,5.50
2022-11-19T14:52:24.174Z,5.40
2022-11-19T14:54:56.278Z,5.50
2022-11-19T14:57:27.454Z,5.60
2022-11-19T14:59:57.032Z,5.70
2022-11-19T15:02:29.815Z,5.80
2022-11-19T15:05:04.965Z,5.80
2022-11-19T15:07:39.435Z,5.90
2022-11-19T15:10:09.190Z,5.80
2022-11-19T15:12:45.123Z,5.80
2022-11-19T15:15:20.826Z,5.70
2022-11-19T15:17:49.180Z,5.80
2022-11-19T15:20:34.807Z,5.70
2022-11-19T15:23:13.104Z,5.50
2022-11-19T15:25:46.105Z,5.50
2022-11-19T15:28:20.269Z,5.40
2022-11-19T15:30:46.871Z,5.20
2022-11-19T15:33:28.664Z,5.20
2022-11-19T15:35:55.286Z,5.20
2022-11-19T15:38:21.913Z,5.10
2022-11-19T15:40:49.850Z,5.00
2022-11-19T15:43:19.501Z,4.90
2022-11-19T15:45:52.354Z,4.90
2022-11-19T15:48:23.571Z,4.90
2022-11-19T15:50:51.287Z,4.90
2022-11-19T15:53:17.946Z,4.80
2022-11-19T15:55:55.766Z,4.80
2022-11-19T15:58:39.473Z,4.80
2022-11-19T16:01:08.154Z,4.80
2022-11-19T16:03:38.344Z,4.80
2022-11-19T16:06:10.408Z,4.80
2022-11-19T16:08:37.707Z,4.70
2022-11-19T16:11:23.663Z,4.70
2022-11-19T16:14:13.003Z,4.70
2022-11-19T16:16:58.519Z,4.60
2022-11-19T16:19:25.157Z,4.70
2022-11-19T16:21:57.672Z,4.60
2022-11-19T16:24:44.042Z,4.60
2022-11-19T16:27:12.796Z,4.50
2022-11-19T16:29:40.899Z,4.60
2022-11-19T16:32:08.224Z,4.60
2022-11-19T16:34:36.732Z,4.60
2022-11-19T16:37:03.636Z,4.60
2022-11-19T16:39:31.274Z,4.50
2022-11-19T16:42:17.529Z,4.50
2022-11-19T16:44:48.539Z,4.50
2022-11-19T16:47:28.896Z,4.60
2022-11-19T16:49:58.444Z,4.60
2022-11-19T16:52:43.484Z,4.60
2022-11-19T16:55:19.233Z,4.70
2022-11-19T16:57:46.675Z,4.70
2022-11-19T17:00:17.137Z,4.70
2022-11-19T17:02:43.847Z,4.70
2022-11-19T17:05:12.356Z,4.70
2022-11-19T17:07:39.380Z,4.70
2022-11-19T17:10:07.796Z,4.60
2022-11-19T17:12:35.249Z,4.50
2022-11-19T17:15:21.816Z,4.60
2022-11-19T17:17:48.498Z,4.60
2022-11-19T17:20:27.512Z,4.60
2022-11-19T17:22:54.290Z,4.60
2022-11-19T17:25:21.176Z,4.60
2022-11-19T17:27:57.883Z,4.70
2022-11-19T17:30:26.506Z,4.70
2022-11-19T17:32:54.215Z,4.70
2022-11-19T17:35:36.118Z,4.70
2022-11-19T17:38:12.134Z,4.60
2022-11-19T17:40:49.307Z,4.60
2022-11-19T17:43:41.643Z,4.50
2022-11-19T17:46:08.576Z,4.50
2022-11-19T17:48:35.336Z,4.40
2022-11-19T17:51:01.929Z,4.40
2022-11-19T17:53:28.538Z,4.40
2022-11-19T17:55:56.024Z,4.30
2022-11-19T17:58:22.647Z,4.40
2022-11-19T18:00:49.544Z,4.30
2022-11-19T18:03:16.206Z,4.30
2022-11-19T18:05:45.771Z,4.20
2022-11-19T18:08:12.506Z,4.20
2022-11-19T18:10:40.862Z,4.10
2022-11-19T18:13:09.703Z,4.10
2022-11-19T18:15:36.300Z,4.10
2022-11-19T18:18:02.932Z,4.10
2022-11-19T18:20:29.525Z,4.00
2022-11-19T18:22:56.149Z,4.00
2022-11-19T18:25:23.054Z,4.00
2022-11-19T18:27:49.688Z,4.00
2022-11-19T18:30:16.832Z,4.00
2022-11-19T18:32:43.480Z,4.00
2022-11-19T18:35:17.872Z,4.00
2022-11-19T18:37:44.802Z,4.00
2022-11-19T18:40:12.067Z,4.00
2022-11-19T18:42:38.718Z,4.00
2022-11-19T18:45:05.827Z,4.00
2022-11-19T18:47:32.401Z,4.00
2022-11-19T18:49:59.042Z,3.90
2022-11-19T18:52:25.631Z,3.90
2022-11-19T18:54:52.356Z,3.90
2022-11-19T18:57:18.975Z,3.90
2022-11-19T18:59:45.582Z,3.90
2022-11-19T19:02:12.235Z,3.90
2022-11-19T19:04:38.931Z,3.90
2022-11-19T19:07:05.624Z,3.90
2022-11-19T19:09:32.303Z,3.90
2022-11-19T19:12:17.484Z,3.90
2022-11-19T19:14:45.192Z,3.80
2022-11-19T19:17:11.903Z,3.70
2022-11-19T19:19:38.910Z,3.60
2022-11-19T19:22:05.857Z,3.60
2022-11-19T19:24:32.568Z,3.50
2022-11-19T19:26:59.669Z,3.50
2022-11-19T19:29:26.278Z,3.40
2022-11-19T19:31:52.867Z,3.60
2022-11-19T19:34:19.759Z,3.70
2022-11-19T19:36:51.629Z,3.60
2022-11-19T19:39:20.046Z,3.60
2022-11-19T19:41:46.771Z,3.60
2022-11-19T19:44:13.371Z,3.70
2022-11-19T19:46:40.210Z,3.70
2022-11-19T19:49:06.918Z,3.70
2022-11-19T19:51:33.553Z,3.70
2022-11-19T19:54:00.397Z,3.70
2022-11-19T19:56:28.468Z,3.60
2022-11-19T19:58:55.934Z,3.60
2022-11-19T20:01:24.487Z,3.60
2022-11-19T20:03:54.632Z,3.50
2022-11-19T20:06:22.674Z,3.40
2022-11-19T20:08:49.412Z,3.40
2022-11-19T20:11:17.711Z,3.50
2022-11-19T20:13:44.680Z,3.40
2022-11-19T20:16:17.532Z,3.40
2022-11-19T20:18:44.751Z,3.40
2022-11-19T20:21:12.716Z,3.20
2022-11-19T20:23:40.004Z,3.20
2022-11-19T20:26:11.211Z,3.20
2022-11-19T20:28:38.082Z,3.20
2022-11-19T20:31:04.790Z,3.20
2022-11-19T20:33:31.462Z,3.20
2022-11-19T20:35:58.222Z,3.20
2022-11-19T20:38:24.927Z,3.10
2022-11-19T20:40:55.480Z,2.90
2022-11-19T20:43:45.872Z,2.80
2022-11-19T20:46:17.640Z,2.70
2022-11-19T20:48:44.597Z,2.70
2022-11-19T20:51:11.279Z,2.70
2022-11-19T20:53:38.235Z,2.70
2022-11-19T20:56:05.932Z,2.80
2022-11-19T20:58:32.778Z,2.70
2022-11-19T21:01:00.435Z,2.80
2022-11-19T21:03:27.116Z,2.70
2022-11-19T21:05:58.032Z,2.60
2022-11-19T21:08:25.873Z,2.60
2022-11-19T21:10:56.250Z,2.60
2022-11-19T21:13:22.916Z,2.70
2022-11-19T21:15:49.533Z,2.70
2022-11-19T21:18:16.169Z,2.70
2022-11-19T21:20:42.760Z,2.60
2022-11-19T21:23:09.358Z,2.70
2022-11-19T21:25:37.506Z,2.70
2022-11-19T21:28:04.231Z,2.70
2022-11-19T21:30:30.862Z,2.70
2022-11-19T21:32:57.516Z,2.80
2022-11-19T21:35:24.139Z,2.80
2022-11-19T21:37:50.712Z,2.80
2022-11-19T21:40:17.371Z,2.80
2022-11-19T21:42:43.971Z,2.80
2022-11-19T21:45:10.719Z,2.90
2022-11-19T21:47:37.306Z,2.80
2022-11-19T21:50:04.130Z,2.90
2022-11-19T21:52:31.772Z,2.90
2022-11-19T21:54:58.375Z,2.90
2022-11-19T21:57:25.823Z,2.80
2022-11-19T21:59:52.421Z,2.80
2022-11-19T22:02:19.065Z,2.70
2022-11-19T22:04:45.747Z,2.80
2022-11-19T22:07:12.385Z,2.70
2022-11-19T22:09:39.291Z,2.60
2022-11-19T22:12:05.915Z,2.60
2022-11-19T22:14:32.520Z,2.70
2022-11-19T22:16:59.151Z,2.70
2022-11-19T22:19:25.759Z,2.60
2022-11-19T22:21:52.392Z,2.70
2022-11-19T22:24:21.387Z,2.70
2022-11-19T22:26:48.131Z,2.70
2022-11-19T22:29:14.795Z,2.80
2022-11-19T22:31:41.468Z,2.70
2022-11-19T22:34:08.123Z,2.70
2022-11-19T22:36:34.816Z,2.80
2022-11-19T22:39:01.662Z,2.80
2022-11-19T22:41:28.291Z,2.80
2022-11-19T22:43:54.952Z,2.90
2022-11-19T22:46:21.748Z,2.90
2022-11-19T22:48:48.457Z,2.90
2022-11-19T22:51:20.273Z,2.90
2022-11-19T22:53:47.811Z,3.00
2022-11-19T22:56:16.110Z,3.00
2022-11-19T22:58:43.099Z,2.90
2022-11-19T23:01:14.625Z,2.90
2022-11-19T23:03:41.342Z,3.00
2022-11-19T23:06:07.942Z,3.00
2022-11-19T23:08:34.612Z,3.00
2022-11-19T23:11:02.366Z,3.00
2022-11-19T23:13:33.484Z,3.00
2022-11-19T23:16:03.240Z,2.90
2022-11-19T23:18:31.996Z,2.90
2022-11-19T23:20:59.562Z,2.90
2022-11-19T23:23:26.747Z,2.80
2022-11-19T23:26:00.263Z,2.80
2022-11-19T23:28:27.753Z,2.80
2022-11-19T23:30:54.606Z,2.70
2022-11-19T23:33:21.542Z,2.70
2022-11-19T23:35:48.641Z,2.70
2022-11-19T23:38:15.529Z,2.70
2022-11-19T23:40:42.176Z,2.70
2022-11-19T23:43:08.771Z,2.60
2022-11-19T23:45:35.947Z,2.60
2022-11-19T23:48:02.804Z,2.50
2022-11-19T23:50:29.419Z,2.50
2022-11-19T23:52:56.042Z,2.50
2022-11-19T23:55:22.669Z,2.50
2022-11-19T23:57:49.242Z,2.40
